sensor_id;sensor_type;location;lat;lon;timestamp;P1;durP1;ratioP1;P2;durP2;ratioP2
12908;SDS011;6522;49.622;6.126;2024-02-21T00:01:50;9.70;;;6.70;;
12908;SDS011;6522;49.622;6.126;2024-02-21T00:04:37;11.38;;;7.30;;
12908;SDS011;6522;49.622;6.126;2024-02-21T00:07:24;14.87;;;7.47;;
12908;SDS011;6522;49.622;6.126;2024-02-21T00:10:11;13.07;;;7.95;;
12908;SDS011;6522;49.622;6.126;2024-02-21T00:12:57;12.60;;;7.55;;
12908;SDS011;6522;49.622;6.126;2024-02-21T00:15:44;9.75;;;7.47;;
12908;SDS011;6522;49.622;6.126;2024-02-21T00:18:31;14.00;;;7.60;;
12908;SDS011;6522;49.622;6.126;2024-02-21T00:21:17;13.50;;;7.50;;
12908;SDS011;6522;49.622;6.126;2024-02-21T00:24:04;11.12;;;7.65;;
12908;SDS011;6522;49.622;6.126;2024-02-21T00:26:52;12.27;;;7.78;;
12908;SDS011;6522;49.622;6.126;2024-02-21T00:29:39;10.82;;;6.97;;
12908;SDS011;6522;49.622;6.126;2024-02-21T00:32:25;12.77;;;8.35;;
12908;SDS011;6522;49.622;6.126;2024-02-21T00:35:12;15.70;;;8.30;;
12908;SDS011;6522;49.622;6.126;2024-02-21T00:37:58;11.77;;;8.18;;
12908;SDS011;6522;49.622;6.126;2024-02-21T00:40:45;11.63;;;7.25;;
12908;SDS011;6522;49.622;6.126;2024-02-21T00:43:32;14.35;;;8.02;;
12908;SDS011;6522;49.622;6.126;2024-02-21T00:46:18;17.25;;;9.43;;
12908;SDS011;6522;49.622;6.126;2024-02-21T00:49:05;14.65;;;8.93;;
12908;SDS011;6522;49.622;6.126;2024-02-21T00:51:52;13.82;;;9.05;;
12908;SDS011;6522;49.622;6.126;2024-02-21T00:54:38;12.70;;;7.53;;
12908;SDS011;6522;49.622;6.126;2024-02-21T00:57:26;8.88;;;7.45;;
12908;SDS011;6522;49.622;6.126;2024-02-21T01:00:12;18.48;;;8.10;;
12908;SDS011;6522;49.622;6.126;2024-02-21T01:03:00;22.40;;;8.38;;
12908;SDS011;6522;49.622;6.126;2024-02-21T01:05:46;17.75;;;7.80;;
12908;SDS011;6522;49.622;6.126;2024-02-21T01:08:33;15.75;;;8.27;;
12908;SDS011;6522;49.622;6.126;2024-02-21T01:11:20;14.40;;;9.20;;
12908;SDS011;6522;49.622;6.126;2024-02-21T01:14:07;13.48;;;8.02;;
12908;SDS011;6522;49.622;6.126;2024-02-21T01:16:54;10.30;;;8.15;;
12908;SDS011;6522;49.622;6.126;2024-02-21T01:19:41;16.02;;;8.48;;
12908;SDS011;6522;49.622;6.126;2024-02-21T01:22:28;17.42;;;9.30;;
12908;SDS011;6522;49.622;6.126;2024-02-21T01:25:15;14.05;;;8.63;;
12908;SDS011;6522;49.622;6.126;2024-02-21T01:28:02;14.93;;;8.13;;
12908;SDS011;6522;49.622;6.126;2024-02-21T01:30:49;18.37;;;7.68;;
12908;SDS011;6522;49.622;6.126;2024-02-21T01:33:35;13.27;;;7.78;;
12908;SDS011;6522;49.622;6.126;2024-02-21T01:36:22;13.32;;;8.88;;
12908;SDS011;6522;49.622;6.126;2024-02-21T01:39:09;24.05;;;8.35;;
12908;SDS011;6522;49.622;6.126;2024-02-21T01:41:55;13.48;;;8.23;;
12908;SDS011;6522;49.622;6.126;2024-02-21T01:44:42;11.48;;;8.10;;
12908;SDS011;6522;49.622;6.126;2024-02-21T01:47:29;12.48;;;7.62;;
12908;SDS011;6522;49.622;6.126;2024-02-21T01:50:16;9.90;;;8.27;;
12908;SDS011;6522;49.622;6.126;2024-02-21T01:53:03;14.73;;;8.68;;
12908;SDS011;6522;49.622;6.126;2024-02-21T01:55:49;14.65;;;7.55;;
12908;SDS011;6522;49.622;6.126;2024-02-21T01:58:36;14.90;;;7.97;;
12908;SDS011;6522;49.622;6.126;2024-02-21T02:01:23;10.75;;;8.25;;
12908;SDS011;6522;49.622;6.126;2024-02-21T02:04:09;16.12;;;7.47;;
12908;SDS011;6522;49.622;6.126;2024-02-21T02:06:56;14.40;;;7.75;;
12908;SDS011;6522;49.622;6.126;2024-02-21T02:09:43;14.60;;;8.18;;
12908;SDS011;6522;49.622;6.126;2024-02-21T02:12:29;10.77;;;7.70;;
12908;SDS011;6522;49.622;6.126;2024-02-21T02:15:16;13.68;;;7.60;;
12908;SDS011;6522;49.622;6.126;2024-02-21T02:18:02;16.98;;;8.20;;
12908;SDS011;6522;49.622;6.126;2024-02-21T02:20:49;21.75;;;8.18;;
12908;SDS011;6522;49.622;6.126;2024-02-21T02:23:36;10.40;;;7.28;;
12908;SDS011;6522;49.622;6.126;2024-02-21T02:26:23;14.23;;;7.70;;
12908;SDS011;6522;49.622;6.126;2024-02-21T02:29:09;13.45;;;7.37;;
12908;SDS011;6522;49.622;6.126;2024-02-21T02:31:56;11.25;;;8.05;;
12908;SDS011;6522;49.622;6.126;2024-02-21T02:34:42;12.45;;;8.18;;
12908;SDS011;6522;49.622;6.126;2024-02-21T02:37:29;12.32;;;7.95;;
12908;SDS011;6522;49.622;6.126;2024-02-21T02:40:17;11.93;;;8.32;;
12908;SDS011;6522;49.622;6.126;2024-02-21T02:43:03;16.08;;;7.18;;
12908;SDS011;6522;49.622;6.126;2024-02-21T02:45:50;11.07;;;8.07;;
12908;SDS011;6522;49.622;6.126;2024-02-21T02:48:36;8.60;;;7.03;;
12908;SDS011;6522;49.622;6.126;2024-02-21T02:51:23;16.35;;;7.57;;
12908;SDS011;6522;49.622;6.126;2024-02-21T02:54:10;13.55;;;6.85;;
12908;SDS011;6522;49.622;6.126;2024-02-21T02:56:57;12.07;;;6.90;;
12908;SDS011;6522;49.622;6.126;2024-02-21T02:59:50;13.93;;;6.60;;
12908;SDS011;6522;49.622;6.126;2024-02-21T03:02:37;9.02;;;7.15;;
12908;SDS011;6522;49.622;6.126;2024-02-21T03:05:23;11.30;;;7.50;;
12908;SDS011;6522;49.622;6.126;2024-02-21T03:08:09;12.32;;;7.85;;
12908;SDS011;6522;49.622;6.126;2024-02-21T03:10:56;12.25;;;7.43;;
12908;SDS011;6522;49.622;6.126;2024-02-21T03:13:43;11.93;;;7.32;;
12908;SDS011;6522;49.622;6.126;2024-02-21T03:16:30;15.45;;;8.88;;
12908;SDS011;6522;49.622;6.126;2024-02-21T03:19:17;13.73;;;8.05;;
12908;SDS011;6522;49.622;6.126;2024-02-21T03:22:04;14.20;;;8.98;;
12908;SDS011;6522;49.622;6.126;2024-02-21T03:24:50;16.80;;;9.95;;
12908;SDS011;6522;49.622;6.126;2024-02-21T03:27:37;15.18;;;9.32;;
12908;SDS011;6522;49.622;6.126;2024-02-21T03:30:24;16.40;;;9.07;;
12908;SDS011;6522;49.622;6.126;2024-02-21T03:33:11;16.40;;;9.55;;
12908;SDS011;6522;49.622;6.126;2024-02-21T03:35:58;17.45;;;8.38;;
12908;SDS011;6522;49.622;6.126;2024-02-21T03:38:45;18.98;;;8.13;;
12908;SDS011;6522;49.622;6.126;2024-02-21T03:41:31;14.20;;;8.85;;
12908;SDS011;6522;49.622;6.126;2024-02-21T03:44:18;12.90;;;7.78;;
12908;SDS011;6522;49.622;6.126;2024-02-21T03:47:05;12.80;;;6.85;;
12908;SDS011;6522;49.622;6.126;2024-02-21T03:49:52;9.75;;;6.40;;
12908;SDS011;6522;49.622;6.126;2024-02-21T03:52:39;13.05;;;7.40;;
12908;SDS011;6522;49.622;6.126;2024-02-21T03:55:25;14.95;;;7.20;;
12908;SDS011;6522;49.622;6.126;2024-02-21T03:58:12;12.93;;;8.00;;
12908;SDS011;6522;49.622;6.126;2024-02-21T04:01:00;10.43;;;7.97;;
12908;SDS011;6522;49.622;6.126;2024-02-21T04:03:46;12.55;;;8.40;;
12908;SDS011;6522;49.622;6.126;2024-02-21T04:06:33;12.25;;;8.45;;
12908;SDS011;6522;49.622;6.126;2024-02-21T04:09:19;14.80;;;8.32;;
12908;SDS011;6522;49.622;6.126;2024-02-21T04:12:07;13.88;;;7.72;;
12908;SDS011;6522;49.622;6.126;2024-02-21T04:14:53;12.73;;;10.15;;
12908;SDS011;6522;49.622;6.126;2024-02-21T04:17:39;17.42;;;11.25;;
12908;SDS011;6522;49.622;6.126;2024-02-21T04:20:26;16.98;;;9.13;;
12908;SDS011;6522;49.622;6.126;2024-02-21T04:23:13;16.77;;;9.07;;
12908;SDS011;6522;49.622;6.126;2024-02-21T04:25:59;11.95;;;8.80;;
12908;SDS011;6522;49.622;6.126;2024-02-21T04:28:46;15.07;;;8.60;;
12908;SDS011;6522;49.622;6.126;2024-02-21T04:31:33;21.73;;;10.43;;
12908;SDS011;6522;49.622;6.126;2024-02-21T04:34:19;14.57;;;9.15;;
12908;SDS011;6522;49.622;6.126;2024-02-21T04:37:06;15.85;;;7.85;;
12908;SDS011;6522;49.622;6.126;2024-02-21T04:39:52;8.95;;;7.28;;
12908;SDS011;6522;49.622;6.126;2024-02-21T04:42:39;22.62;;;10.43;;
12908;SDS011;6522;49.622;6.126;2024-02-21T04:45:26;11.70;;;9.02;;
12908;SDS011;6522;49.622;6.126;2024-02-21T04:48:13;19.90;;;9.38;;
12908;SDS011;6522;49.622;6.126;2024-02-21T04:51:00;18.08;;;9.00;;
12908;SDS011;6522;49.622;6.126;2024-02-21T04:53:46;19.40;;;10.52;;
12908;SDS011;6522;49.622;6.126;2024-02-21T04:56:34;16.65;;;8.90;;
12908;SDS011;6522;49.622;6.126;2024-02-21T04:59:20;15.95;;;9.73;;
12908;SDS011;6522;49.622;6.126;2024-02-21T05:02:07;14.23;;;8.48;;
12908;SDS011;6522;49.622;6.126;2024-02-21T05:04:53;16.60;;;10.32;;
12908;SDS011;6522;49.622;6.126;2024-02-21T05:07:40;15.90;;;9.93;;
12908;SDS011;6522;49.622;6.126;2024-02-21T05:10:27;10.38;;;8.35;;
12908;SDS011;6522;49.622;6.126;2024-02-21T05:13:14;15.48;;;9.55;;
12908;SDS011;6522;49.622;6.126;2024-02-21T05:16:00;13.45;;;8.05;;
12908;SDS011;6522;49.622;6.126;2024-02-21T05:18:47;14.20;;;8.32;;
12908;SDS011;6522;49.622;6.126;2024-02-21T05:21:34;9.48;;;7.95;;
12908;SDS011;6522;49.622;6.126;2024-02-21T05:24:21;17.62;;;8.60;;
12908;SDS011;6522;49.622;6.126;2024-02-21T05:27:08;12.43;;;8.75;;
12908;SDS011;6522;49.622;6.126;2024-02-21T05:29:54;16.05;;;7.70;;
12908;SDS011;6522;49.622;6.126;2024-02-21T05:32:41;15.48;;;8.27;;
12908;SDS011;6522;49.622;6.126;2024-02-21T05:35:28;15.52;;;9.48;;
12908;SDS011;6522;49.622;6.126;2024-02-21T05:38:15;16.92;;;8.05;;
12908;SDS011;6522;49.622;6.126;2024-02-21T05:41:02;13.60;;;8.30;;
12908;SDS011;6522;49.622;6.126;2024-02-21T05:43:48;14.87;;;8.88;;
12908;SDS011;6522;49.622;6.126;2024-02-21T05:46:35;20.12;;;8.15;;
12908;SDS011;6522;49.622;6.126;2024-02-21T05:49:22;15.38;;;8.45;;
12908;SDS011;6522;49.622;6.126;2024-02-21T05:52:08;11.68;;;7.90;;
12908;SDS011;6522;49.622;6.126;2024-02-21T05:54:55;11.50;;;8.80;;
12908;SDS011;6522;49.622;6.126;2024-02-21T05:57:42;16.13;;;8.10;;
12908;SDS011;6522;49.622;6.126;2024-02-21T06:00:28;13.35;;;9.57;;
12908;SDS011;6522;49.622;6.126;2024-02-21T06:03:15;17.08;;;9.13;;
12908;SDS011;6522;49.622;6.126;2024-02-21T06:06:02;11.43;;;7.65;;
12908;SDS011;6522;49.622;6.126;2024-02-21T06:08:49;13.95;;;8.63;;
12908;SDS011;6522;49.622;6.126;2024-02-21T06:11:36;20.52;;;7.50;;
12908;SDS011;6522;49.622;6.126;2024-02-21T06:14:23;12.13;;;7.87;;
12908;SDS011;6522;49.622;6.126;2024-02-21T06:17:09;19.70;;;9.85;;
12908;SDS011;6522;49.622;6.126;2024-02-21T06:19:56;14.23;;;8.68;;
12908;SDS011;6522;49.622;6.126;2024-02-21T06:22:44;12.20;;;9.93;;
12908;SDS011;6522;49.622;6.126;2024-02-21T06:25:31;11.95;;;9.55;;
12908;SDS011;6522;49.622;6.126;2024-02-21T06:28:18;17.45;;;9.50;;
12908;SDS011;6522;49.622;6.126;2024-02-21T06:31:04;16.62;;;9.82;;
12908;SDS011;6522;49.622;6.126;2024-02-21T06:33:51;12.40;;;9.10;;
12908;SDS011;6522;49.622;6.126;2024-02-21T06:36:38;10.15;;;7.97;;
12908;SDS011;6522;49.622;6.126;2024-02-21T06:39:24;19.95;;;8.30;;
12908;SDS011;6522;49.622;6.126;2024-02-21T06:42:12;13.80;;;8.98;;
12908;SDS011;6522;49.622;6.126;2024-02-21T06:44:59;11.10;;;7.12;;
12908;SDS011;6522;49.622;6.126;2024-02-21T06:47:46;16.47;;;9.30;;
12908;SDS011;6522;49.622;6.126;2024-02-21T06:50:33;15.77;;;8.50;;
12908;SDS011;6522;49.622;6.126;2024-02-21T06:53:19;23.80;;;7.85;;
12908;SDS011;6522;49.622;6.126;2024-02-21T06:56:06;13.00;;;8.10;;
12908;SDS011;6522;49.622;6.126;2024-02-21T06:58:53;13.15;;;8.20;;
12908;SDS011;6522;49.622;6.126;2024-02-21T07:01:39;15.25;;;8.10;;
12908;SDS011;6522;49.622;6.126;2024-02-21T07:04:27;17.17;;;7.93;;
12908;SDS011;6522;49.622;6.126;2024-02-21T07:07:13;13.68;;;8.50;;
12908;SDS011;6522;49.622;6.126;2024-02-21T07:10:00;17.83;;;8.70;;
12908;SDS011;6522;49.622;6.126;2024-02-21T07:12:47;11.35;;;8.00;;
12908;SDS011;6522;49.622;6.126;2024-02-21T07:15:34;16.58;;;8.30;;
12908;SDS011;6522;49.622;6.126;2024-02-21T07:18:21;12.93;;;8.57;;
12908;SDS011;6522;49.622;6.126;2024-02-21T07:21:07;14.18;;;7.62;;
12908;SDS011;6522;49.622;6.126;2024-02-21T07:23:54;16.00;;;7.97;;
12908;SDS011;6522;49.622;6.126;2024-02-21T07:26:41;10.75;;;7.80;;
12908;SDS011;6522;49.622;6.126;2024-02-21T07:29:28;10.60;;;7.50;;
12908;SDS011;6522;49.622;6.126;2024-02-21T07:32:14;15.65;;;8.82;;
12908;SDS011;6522;49.622;6.126;2024-02-21T07:35:01;14.35;;;8.88;;
12908;SDS011;6522;49.622;6.126;2024-02-21T07:37:48;12.88;;;7.78;;
12908;SDS011;6522;49.622;6.126;2024-02-21T07:40:35;15.30;;;7.82;;
12908;SDS011;6522;49.622;6.126;2024-02-21T07:43:22;12.52;;;7.72;;
12908;SDS011;6522;49.622;6.126;2024-02-21T07:46:09;10.35;;;7.65;;
12908;SDS011;6522;49.622;6.126;2024-02-21T07:48:55;9.82;;;6.45;;
12908;SDS011;6522;49.622;6.126;2024-02-21T07:51:42;9.07;;;7.05;;
12908;SDS011;6522;49.622;6.126;2024-02-21T07:54:29;14.13;;;8.35;;
12908;SDS011;6522;49.622;6.126;2024-02-21T07:57:16;10.18;;;6.87;;
12908;SDS011;6522;49.622;6.126;2024-02-21T08:00:03;20.58;;;8.60;;
12908;SDS011;6522;49.622;6.126;2024-02-21T08:02:53;10.85;;;7.22;;
12908;SDS011;6522;49.622;6.126;2024-02-21T08:05:39;11.73;;;7.40;;
12908;SDS011;6522;49.622;6.126;2024-02-21T08:08:26;17.23;;;7.78;;
12908;SDS011;6522;49.622;6.126;2024-02-21T08:11:13;11.07;;;7.50;;
12908;SDS011;6522;49.622;6.126;2024-02-21T08:14:00;13.48;;;7.10;;
12908;SDS011;6522;49.622;6.126;2024-02-21T08:16:47;9.25;;;7.18;;
12908;SDS011;6522;49.622;6.126;2024-02-21T08:19:33;8.82;;;8.00;;
12908;SDS011;6522;49.622;6.126;2024-02-21T08:22:20;11.12;;;6.55;;
12908;SDS011;6522;49.622;6.126;2024-02-21T08:25:07;7.47;;;6.72;;
12908;SDS011;6522;49.622;6.126;2024-02-21T08:27:56;9.75;;;7.00;;
12908;SDS011;6522;49.622;6.126;2024-02-21T08:30:40;9.77;;;5.70;;
12908;SDS011;6522;49.622;6.126;2024-02-21T08:33:27;10.65;;;5.90;;
12908;SDS011;6522;49.622;6.126;2024-02-21T08:36:18;8.85;;;7.60;;
12908;SDS011;6522;49.622;6.126;2024-02-21T08:39:04;10.98;;;7.20;;
12908;SDS011;6522;49.622;6.126;2024-02-21T08:41:51;14.55;;;7.35;;
12908;SDS011;6522;49.622;6.126;2024-02-21T08:44:39;12.07;;;7.60;;
12908;SDS011;6522;49.622;6.126;2024-02-21T08:47:24;7.95;;;7.25;;
12908;SDS011;6522;49.622;6.126;2024-02-21T08:50:11;8.23;;;6.95;;
12908;SDS011;6522;49.622;6.126;2024-02-21T08:52:58;8.00;;;7.20;;
12908;SDS011;6522;49.622;6.126;2024-02-21T08:55:45;12.20;;;6.40;;
12908;SDS011;6522;49.622;6.126;2024-02-21T08:58:32;18.40;;;8.25;;
12908;SDS011;6522;49.622;6.126;2024-02-21T09:01:18;9.50;;;7.50;;
12908;SDS011;6522;49.622;6.126;2024-02-21T09:04:05;15.73;;;8.10;;
12908;SDS011;6522;49.622;6.126;2024-02-21T09:06:52;12.55;;;8.55;;
12908;SDS011;6522;49.622;6.126;2024-02-21T09:09:38;18.92;;;7.90;;
12908;SDS011;6522;49.622;6.126;2024-02-21T09:12:25;10.65;;;7.50;;
12908;SDS011;6522;49.622;6.126;2024-02-21T09:15:12;12.23;;;6.45;;
12908;SDS011;6522;49.622;6.126;2024-02-21T09:17:59;11.35;;;8.23;;
12908;SDS011;6522;49.622;6.126;2024-02-21T09:20:45;12.63;;;7.35;;
12908;SDS011;6522;49.622;6.126;2024-02-21T09:23:32;11.35;;;8.02;;
12908;SDS011;6522;49.622;6.126;2024-02-21T09:26:19;11.20;;;8.68;;
12908;SDS011;6522;49.622;6.126;2024-02-21T09:29:05;13.35;;;8.63;;
12908;SDS011;6522;49.622;6.126;2024-02-21T09:31:52;15.85;;;7.65;;
12908;SDS011;6522;49.622;6.126;2024-02-21T09:34:38;12.27;;;8.73;;
12908;SDS011;6522;49.622;6.126;2024-02-21T09:37:25;12.68;;;8.40;;
12908;SDS011;6522;49.622;6.126;2024-02-21T09:40:11;10.13;;;8.48;;
12908;SDS011;6522;49.622;6.126;2024-02-21T09:43:02;17.65;;;7.90;;
12908;SDS011;6522;49.622;6.126;2024-02-21T09:45:46;13.95;;;9.65;;
12908;SDS011;6522;49.622;6.126;2024-02-21T09:48:36;10.88;;;8.00;;
12908;SDS011;6522;49.622;6.126;2024-02-21T09:51:19;11.40;;;8.50;;
12908;SDS011;6522;49.622;6.126;2024-02-21T09:54:07;14.50;;;9.18;;
12908;SDS011;6522;49.622;6.126;2024-02-21T09:56:52;11.20;;;8.00;;
12908;SDS011;6522;49.622;6.126;2024-02-21T09:59:39;11.15;;;7.87;;
12908;SDS011;6522;49.622;6.126;2024-02-21T10:02:26;13.20;;;7.30;;
12908;SDS011;6522;49.622;6.126;2024-02-21T10:05:13;13.13;;;6.40;;
12908;SDS011;6522;49.622;6.126;2024-02-21T10:07:59;10.77;;;6.57;;
12908;SDS011;6522;49.622;6.126;2024-02-21T10:10:46;13.32;;;6.68;;
12908;SDS011;6522;49.622;6.126;2024-02-21T10:13:32;13.55;;;7.15;;
12908;SDS011;6522;49.622;6.126;2024-02-21T10:16:19;8.07;;;7.32;;
12908;SDS011;6522;49.622;6.126;2024-02-21T10:19:06;11.27;;;6.85;;
12908;SDS011;6522;49.622;6.126;2024-02-21T10:22:03;13.50;;;7.07;;
12908;SDS011;6522;49.622;6.126;2024-02-21T10:24:45;9.23;;;7.28;;
12908;SDS011;6522;49.622;6.126;2024-02-21T10:27:32;8.57;;;7.78;;
12908;SDS011;6522;49.622;6.126;2024-02-21T10:30:18;11.70;;;8.27;;
12908;SDS011;6522;49.622;6.126;2024-02-21T10:33:05;7.90;;;7.20;;
12908;SDS011;6522;49.622;6.126;2024-02-21T10:35:52;6.82;;;6.32;;
12908;SDS011;6522;49.622;6.126;2024-02-21T10:38:39;9.80;;;7.35;;
12908;SDS011;6522;49.622;6.126;2024-02-21T10:41:25;14.93;;;7.53;;
12908;SDS011;6522;49.622;6.126;2024-02-21T10:44:12;9.35;;;6.93;;
12908;SDS011;6522;49.622;6.126;2024-02-21T10:46:59;8.55;;;7.65;;
12908;SDS011;6522;49.622;6.126;2024-02-21T10:49:46;9.88;;;7.20;;
12908;SDS011;6522;49.622;6.126;2024-02-21T10:55:34;10.65;;;8.20;;
12908;SDS011;6522;49.622;6.126;2024-02-21T10:58:18;13.75;;;7.70;;
12908;SDS011;6522;49.622;6.126;2024-02-21T11:01:05;11.45;;;7.78;;
12908;SDS011;6522;49.622;6.126;2024-02-21T11:03:52;11.88;;;8.75;;
12908;SDS011;6522;49.622;6.126;2024-02-21T11:06:39;14.15;;;8.20;;
12908;SDS011;6522;49.622;6.126;2024-02-21T11:09:31;10.73;;;9.35;;
12908;SDS011;6522;49.622;6.126;2024-02-21T11:12:21;10.38;;;6.65;;
12908;SDS011;6522;49.622;6.126;2024-02-21T11:15:08;9.38;;;8.50;;
12908;SDS011;6522;49.622;6.126;2024-02-21T11:17:55;13.85;;;8.63;;
12908;SDS011;6522;49.622;6.126;2024-02-21T11:20:49;9.25;;;6.70;;
12908;SDS011;6522;49.622;6.126;2024-02-21T11:23:28;8.77;;;8.00;;
12908;SDS011;6522;49.622;6.126;2024-02-21T11:26:19;7.45;;;6.60;;
12908;SDS011;6522;49.622;6.126;2024-02-21T11:29:02;9.90;;;8.90;;
12908;SDS011;6522;49.622;6.126;2024-02-21T11:31:49;9.32;;;8.52;;
12908;SDS011;6522;49.622;6.126;2024-02-21T11:34:35;14.55;;;8.73;;
12908;SDS011;6522;49.622;6.126;2024-02-21T11:37:24;10.93;;;6.68;;
12908;SDS011;6522;49.622;6.126;2024-02-21T11:40:09;10.60;;;9.70;;
12908;SDS011;6522;49.622;6.126;2024-02-21T11:42:58;10.43;;;6.93;;
12908;SDS011;6522;49.622;6.126;2024-02-21T11:45:42;8.40;;;7.50;;
12908;SDS011;6522;49.622;6.126;2024-02-21T11:48:31;10.65;;;9.73;;
12908;SDS011;6522;49.622;6.126;2024-02-21T11:51:26;11.10;;;10.00;;
12908;SDS011;6522;49.622;6.126;2024-02-21T11:54:12;11.68;;;10.68;;
12908;SDS011;6522;49.622;6.126;2024-02-21T11:57:00;9.65;;;8.95;;
12908;SDS011;6522;49.622;6.126;2024-02-21T11:59:46;10.63;;;9.68;;
12908;SDS011;6522;49.622;6.126;2024-02-21T12:02:33;9.27;;;7.40;;
12908;SDS011;6522;49.622;6.126;2024-02-21T12:05:20;12.10;;;10.52;;
12908;SDS011;6522;49.622;6.126;2024-02-21T12:08:06;11.18;;;10.15;;
12908;SDS011;6522;49.622;6.126;2024-02-21T12:10:53;10.10;;;9.10;;
12908;SDS011;6522;49.622;6.126;2024-02-21T12:13:40;11.10;;;10.10;;
12908;SDS011;6522;49.622;6.126;2024-02-21T12:16:27;10.32;;;9.43;;
12908;SDS011;6522;49.622;6.126;2024-02-21T12:19:13;9.50;;;8.70;;
12908;SDS011;6522;49.622;6.126;2024-02-21T12:22:00;9.55;;;8.75;;
12908;SDS011;6522;49.622;6.126;2024-02-21T12:24:47;11.02;;;9.90;;
12908;SDS011;6522;49.622;6.126;2024-02-21T12:27:34;13.93;;;10.00;;
12908;SDS011;6522;49.622;6.126;2024-02-21T12:30:21;11.25;;;7.30;;
12908;SDS011;6522;49.622;6.126;2024-02-21T12:33:07;13.30;;;12.20;;
12908;SDS011;6522;49.622;6.126;2024-02-21T12:35:54;8.95;;;8.05;;
12908;SDS011;6522;49.622;6.126;2024-02-21T12:38:40;13.52;;;12.30;;
12908;SDS011;6522;49.622;6.126;2024-02-21T12:41:27;13.38;;;12.00;;
12908;SDS011;6522;49.622;6.126;2024-02-21T12:44:14;13.45;;;12.27;;
12908;SDS011;6522;49.622;6.126;2024-02-21T12:47:01;14.45;;;12.40;;
12908;SDS011;6522;49.622;6.126;2024-02-21T12:49:48;12.68;;;11.57;;
12908;SDS011;6522;49.622;6.126;2024-02-21T12:52:35;11.93;;;11.18;;
12908;SDS011;6522;49.622;6.126;2024-02-21T12:55:22;13.07;;;11.88;;
12908;SDS011;6522;49.622;6.126;2024-02-21T12:58:08;13.23;;;12.32;;
12908;SDS011;6522;49.622;6.126;2024-02-21T13:00:55;13.32;;;12.43;;
12908;SDS011;6522;49.622;6.126;2024-02-21T13:03:42;14.20;;;13.30;;
12908;SDS011;6522;49.622;6.126;2024-02-21T13:06:28;13.68;;;12.27;;
12908;SDS011;6522;49.622;6.126;2024-02-21T13:09:15;12.88;;;12.05;;
12908;SDS011;6522;49.622;6.126;2024-02-21T13:12:02;12.95;;;11.77;;
12908;SDS011;6522;49.622;6.126;2024-02-21T13:14:49;11.98;;;11.12;;
12908;SDS011;6522;49.622;6.126;2024-02-21T13:17:36;13.57;;;12.48;;
12908;SDS011;6522;49.622;6.126;2024-02-21T13:20:23;10.20;;;9.20;;
12908;SDS011;6522;49.622;6.126;2024-02-21T13:23:09;14.48;;;13.23;;
12908;SDS011;6522;49.622;6.126;2024-02-21T13:25:56;13.88;;;12.85;;
12908;SDS011;6522;49.622;6.126;2024-02-21T13:28:43;13.75;;;12.65;;
12908;SDS011;6522;49.622;6.126;2024-02-21T13:31:30;12.52;;;11.80;;
12908;SDS011;6522;49.622;6.126;2024-02-21T13:34:17;13.65;;;12.35;;
12908;SDS011;6522;49.622;6.126;2024-02-21T13:37:04;9.38;;;8.57;;
12908;SDS011;6522;49.622;6.126;2024-02-21T13:39:50;13.00;;;11.95;;
12908;SDS011;6522;49.622;6.126;2024-02-21T13:42:37;14.10;;;13.13;;
12908;SDS011;6522;49.622;6.126;2024-02-21T13:45:23;12.60;;;12.00;;
12908;SDS011;6522;49.622;6.126;2024-02-21T13:48:10;14.45;;;13.15;;
12908;SDS011;6522;49.622;6.126;2024-02-21T13:50:58;14.00;;;12.68;;
12908;SDS011;6522;49.622;6.126;2024-02-21T13:53:44;10.40;;;9.60;;
12908;SDS011;6522;49.622;6.126;2024-02-21T13:56:31;13.50;;;12.90;;
12908;SDS011;6522;49.622;6.126;2024-02-21T13:59:18;14.50;;;13.60;;
12908;SDS011;6522;49.622;6.126;2024-02-21T14:02:05;14.25;;;12.90;;
12908;SDS011;6522;49.622;6.126;2024-02-21T14:04:51;14.48;;;13.02;;
12908;SDS011;6522;49.622;6.126;2024-02-21T14:07:43;10.18;;;9.27;;
12908;SDS011;6522;49.622;6.126;2024-02-21T14:10:30;12.90;;;12.30;;
12908;SDS011;6522;49.622;6.126;2024-02-21T14:13:17;12.98;;;12.20;;
12908;SDS011;6522;49.622;6.126;2024-02-21T14:16:08;14.10;;;12.93;;
12908;SDS011;6522;49.622;6.126;2024-02-21T14:18:51;9.77;;;8.88;;
12908;SDS011;6522;49.622;6.126;2024-02-21T14:21:38;14.40;;;13.48;;
12908;SDS011;6522;49.622;6.126;2024-02-21T14:24:24;13.65;;;12.95;;
12908;SDS011;6522;49.622;6.126;2024-02-21T14:27:11;14.35;;;13.57;;
12908;SDS011;6522;49.622;6.126;2024-02-21T14:29:58;15.07;;;13.88;;
12908;SDS011;6522;49.622;6.126;2024-02-21T14:32:45;14.27;;;13.20;;
12908;SDS011;6522;49.622;6.126;2024-02-21T14:35:31;14.43;;;13.65;;
12908;SDS011;6522;49.622;6.126;2024-02-21T14:38:21;11.10;;;10.10;;
12908;SDS011;6522;49.622;6.126;2024-02-21T14:41:08;14.60;;;13.23;;
12908;SDS011;6522;49.622;6.126;2024-02-21T14:43:55;13.80;;;13.10;;
12908;SDS011;6522;49.622;6.126;2024-02-21T14:46:42;13.50;;;12.80;;
12908;SDS011;6522;49.622;6.126;2024-02-21T14:49:29;11.80;;;10.60;;
12908;SDS011;6522;49.622;6.126;2024-02-21T14:52:16;11.73;;;10.55;;
12908;SDS011;6522;49.622;6.126;2024-02-21T14:55:02;14.95;;;13.80;;
12908;SDS011;6522;49.622;6.126;2024-02-21T14:57:49;15.13;;;14.23;;
12908;SDS011;6522;49.622;6.126;2024-02-21T15:00:36;16.05;;;14.77;;
12908;SDS011;6522;49.622;6.126;2024-02-21T15:03:22;11.45;;;10.65;;
12908;SDS011;6522;49.622;6.126;2024-02-21T15:06:09;14.80;;;13.88;;
12908;SDS011;6522;49.622;6.126;2024-02-21T15:08:56;15.70;;;14.20;;
12908;SDS011;6522;49.622;6.126;2024-02-21T15:11:43;14.50;;;13.70;;
12908;SDS011;6522;49.622;6.126;2024-02-21T15:14:29;17.27;;;13.65;;
12908;SDS011;6522;49.622;6.126;2024-02-21T15:17:17;16.95;;;15.27;;
12908;SDS011;6522;49.622;6.126;2024-02-21T15:20:03;13.93;;;13.20;;
12908;SDS011;6522;49.622;6.126;2024-02-21T15:22:50;14.10;;;13.05;;
12908;SDS011;6522;49.622;6.126;2024-02-21T15:25:38;14.15;;;13.10;;
12908;SDS011;6522;49.622;6.126;2024-02-21T15:28:24;13.98;;;13.00;;
12908;SDS011;6522;49.622;6.126;2024-02-21T15:31:19;13.85;;;12.85;;
12908;SDS011;6522;49.622;6.126;2024-02-21T15:33:58;14.48;;;13.50;;
12908;SDS011;6522;49.622;6.126;2024-02-21T15:36:44;12.75;;;12.05;;
12908;SDS011;6522;49.622;6.126;2024-02-21T15:39:31;12.80;;;12.10;;
12908;SDS011;6522;49.622;6.126;2024-02-21T15:42:18;12.32;;;11.52;;
12908;SDS011;6522;49.622;6.126;2024-02-21T15:45:05;12.93;;;11.93;;
12908;SDS011;6522;49.622;6.126;2024-02-21T15:47:52;12.60;;;11.40;;
12908;SDS011;6522;49.622;6.126;2024-02-21T15:50:39;12.20;;;11.40;;
12908;SDS011;6522;49.622;6.126;2024-02-21T15:53:25;12.57;;;11.60;;
12908;SDS011;6522;49.622;6.126;2024-02-21T15:56:12;11.95;;;11.05;;
12908;SDS011;6522;49.622;6.126;2024-02-21T15:59:01;12.45;;;11.45;;
12908;SDS011;6522;49.622;6.126;2024-02-21T16:01:48;13.13;;;11.95;;
12908;SDS011;6522;49.622;6.126;2024-02-21T16:04:35;12.90;;;11.90;;
12908;SDS011;6522;49.622;6.126;2024-02-21T16:07:22;12.82;;;11.55;;
12908;SDS011;6522;49.622;6.126;2024-02-21T16:10:09;13.07;;;10.73;;
12908;SDS011;6522;49.622;6.126;2024-02-21T16:12:55;12.15;;;10.93;;
12908;SDS011;6522;49.622;6.126;2024-02-21T16:15:42;9.77;;;8.77;;
12908;SDS011;6522;49.622;6.126;2024-02-21T16:18:29;12.45;;;11.63;;
12908;SDS011;6522;49.622;6.126;2024-02-21T16:21:16;11.68;;;10.82;;
12908;SDS011;6522;49.622;6.126;2024-02-21T16:24:03;13.40;;;9.32;;
12908;SDS011;6522;49.622;6.126;2024-02-21T16:26:50;12.73;;;11.73;;
12908;SDS011;6522;49.622;6.126;2024-02-21T16:29:36;11.20;;;9.20;;
12908;SDS011;6522;49.622;6.126;2024-02-21T16:32:23;11.95;;;11.07;;
12908;SDS011;6522;49.622;6.126;2024-02-21T16:35:10;9.93;;;9.13;;
12908;SDS011;6522;49.622;6.126;2024-02-21T16:37:57;13.05;;;12.25;;
12908;SDS011;6522;49.622;6.126;2024-02-21T16:40:43;13.05;;;12.15;;
12908;SDS011;6522;49.622;6.126;2024-02-21T16:43:30;13.35;;;12.05;;
12908;SDS011;6522;49.622;6.126;2024-02-21T16:46:17;10.15;;;9.10;;